createdAt,value
2018-09-17T00:02:47.943Z,73.12
2018-09-17T00:05:52.195Z,72.70
2018-09-17T00:08:56.313Z,73.06
2018-09-17T00:12:00.234Z,73.54
2018-09-17T00:15:04.510Z,73.47
2018-09-17T00:18:08.553Z,73.62
2018-09-17T00:21:12.499Z,73.70
2018-09-17T00:24:16.521Z,73.65
2018-09-17T00:27:20.418Z,72.94
2018-09-17T00:30:24.353Z,73.73
2018-09-17T00:33:28.475Z,73.65
2018-09-17T00:36:33.765Z,73.89
2018-09-17T00:39:37.693Z,73.71
2018-09-17T00:42:41.608Z,73.52
2018-09-17T00:45:45.885Z,74.12
2018-09-17T00:48:49.883Z,73.39
2018-09-17T00:51:53.786Z,73.61
2018-09-17T00:54:57.898Z,73.56
2018-09-17T00:58:01.913Z,74.18
2018-09-17T01:01:06.044Z,74.30
2018-09-17T01:04:10.264Z,73.85
2018-09-17T01:07:14.219Z,73.70
2018-09-17T01:10:18.585Z,74.17
2018-09-17T01:13:22.552Z,74.25
2018-09-17T01:16:26.477Z,74.00
2018-09-17T01:19:30.407Z,74.24
2018-09-17T01:22:34.406Z,73.92
2018-09-17T01:25:38.331Z,73.50
2018-09-17T01:28:42.242Z,73.30
2018-09-17T01:31:46.159Z,73.66
2018-09-17T01:34:50.098Z,73.85
2018-09-17T01:37:54.015Z,73.73
2018-09-17T01:40:58.258Z,73.60
2018-09-17T01:44:02.185Z,74.16
2018-09-17T01:47:06.170Z,73.42
2018-09-17T01:50:10.138Z,74.14
2018-09-17T01:53:14.121Z,73.72
2018-09-17T01:56:18.051Z,74.01
2018-09-17T01:59:21.973Z,74.26
2018-09-17T02:02:26.106Z,73.70
2018-09-17T02:05:30.242Z,74.19
2018-09-17T02:08:34.229Z,74.14
2018-09-17T02:11:38.276Z,74.46
2018-09-17T02:14:42.848Z,74.04
2018-09-17T02:17:46.816Z,74.07
2018-09-17T02:20:50.750Z,73.69
2018-09-17T02:23:54.834Z,73.97
2018-09-17T02:26:58.834Z,73.50
2018-09-17T02:30:02.766Z,73.84
2018-09-17T02:33:06.685Z,74.20
2018-09-17T02:36:10.607Z,73.80
2018-09-17T02:39:14.531Z,74.26
2018-09-17T02:42:18.466Z,74.66
2018-09-17T02:45:22.757Z,73.71
2018-09-17T02:48:26.768Z,74.30
2018-09-17T02:51:30.678Z,74.87
2018-09-17T02:54:34.935Z,74.77
2018-09-17T02:57:38.975Z,74.46
2018-09-17T03:00:43.207Z,74.33
2018-09-17T03:03:47.177Z,74.70
2018-09-17T03:06:51.267Z,74.63
2018-09-17T03:09:55.286Z,74.14
2018-09-17T03:12:59.203Z,74.13
2018-09-17T03:16:04.799Z,74.27
2018-09-17T03:19:08.873Z,74.29
2018-09-17T03:22:13.847Z,74.26
2018-09-17T03:25:17.838Z,74.25
2018-09-17T03:28:22.041Z,73.89
2018-09-17T03:31:25.978Z,74.30
2018-09-17T03:34:30.047Z,74.62
2018-09-17T03:37:33.997Z,74.37
2018-09-17T03:40:37.946Z,74.45
2018-09-17T03:43:43.419Z,74.68
2018-09-17T03:46:47.679Z,74.64
2018-09-17T03:49:51.981Z,74.85
2018-09-17T03:52:56.110Z,74.64
2018-09-17T03:56:00.309Z,74.70
2018-09-17T03:59:04.618Z,74.67
2018-09-17T04:02:08.544Z,75.35
2018-09-17T04:05:12.501Z,75.40
2018-09-17T04:08:16.451Z,74.96
2018-09-17T04:11:20.777Z,75.38
2018-09-17T04:14:24.707Z,75.38
2018-09-17T04:17:28.653Z,75.81
2018-09-17T04:20:32.579Z,75.78
2018-09-17T04:23:37.509Z,76.00
2018-09-17T04:26:41.760Z,75.72
2018-09-17T04:29:45.699Z,76.25
2018-09-17T04:32:49.949Z,76.42
2018-09-17T04:35:53.885Z,75.73
2018-09-17T04:38:57.841Z,76.48
2018-09-17T04:42:02.011Z,76.55
2018-09-17T04:45:06.058Z,76.06
2018-09-17T04:48:10.019Z,76.45
2018-09-17T04:51:14.218Z,76.68
2018-09-17T04:54:18.154Z,76.00
2018-09-17T04:57:22.117Z,76.81
2018-09-17T05:00:26.587Z,76.15
2018-09-17T05:03:30.846Z,76.43
2018-09-17T05:06:34.806Z,76.48
2018-09-17T05:09:38.753Z,77.37
2018-09-17T05:12:42.699Z,77.33
2018-09-17T05:15:46.635Z,76.45
2018-09-17T05:18:50.615Z,76.68
2018-09-17T05:21:54.561Z,76.88
2018-09-17T05:24:58.544Z,76.51
2018-09-17T05:28:02.507Z,76.39
2018-09-17T05:31:06.510Z,75.97
2018-09-17T05:34:10.447Z,76.76
2018-09-17T05:37:14.386Z,76.17
2018-09-17T05:40:18.458Z,77.02
2018-09-17T05:43:22.399Z,76.96
2018-09-17T05:46:26.330Z,76.42
2018-09-17T05:49:30.293Z,77.48
2018-09-17T05:52:34.218Z,76.97
2018-09-17T05:55:38.191Z,77.63
2018-09-17T05:58:42.185Z,77.24
2018-09-17T06:01:46.254Z,77.43
2018-09-17T06:04:50.214Z,77.06
2018-09-17T06:07:54.352Z,77.83
2018-09-17T06:10:58.842Z,77.11
2018-09-17T06:14:02.970Z,77.20
2018-09-17T06:17:07.230Z,77.20
2018-09-17T06:20:11.525Z,77.37
2018-09-17T06:23:15.519Z,77.78
2018-09-17T06:26:19.735Z,77.89
2018-09-17T06:29:23.678Z,77.53
2018-09-17T06:32:27.721Z,77.48
2018-09-17T06:35:31.663Z,76.60
2018-09-17T06:38:35.743Z,76.58
2018-09-17T06:41:39.718Z,76.74
2018-09-17T06:44:43.884Z,77.00
2018-09-17T06:47:47.963Z,76.17
2018-09-17T06:50:52.264Z,76.94
2018-09-17T06:53:56.547Z,76.78
2018-09-17T06:57:00.482Z,76.74
2018-09-17T07:00:04.927Z,76.13
2018-09-17T07:03:08.861Z,76.98
2018-09-17T07:06:12.829Z,76.55
2018-09-17T07:09:16.923Z,76.94
2018-09-17T07:12:20.849Z,76.35
2018-09-17T07:15:24.773Z,75.97
2018-09-17T07:18:29.011Z,76.32
2018-09-17T07:21:33.300Z,76.09
2018-09-17T07:24:37.218Z,76.43
2018-09-17T07:27:41.153Z,77.12
2018-09-17T07:30:45.076Z,76.10
2018-09-17T07:33:49.010Z,76.83
2018-09-17T07:36:52.955Z,76.98
2018-09-17T07:39:57.154Z,76.28
2018-09-17T07:43:01.083Z,76.31
2018-09-17T07:46:05.141Z,76.93
2018-09-17T07:49:09.359Z,76.25
2018-09-17T07:52:13.662Z,76.77
2018-09-17T07:55:17.608Z,77.11
2018-09-17T07:58:21.573Z,76.71
2018-09-17T08:01:25.506Z,76.05
2018-09-17T08:04:30.170Z,76.61
2018-09-17T08:07:34.122Z,76.35
2018-09-17T08:10:38.047Z,76.72
2018-09-17T08:13:42.199Z,76.68
2018-09-17T08:16:46.137Z,76.49
2018-09-17T08:19:50.094Z,77.03
2018-09-17T08:22:54.177Z,76.27
2018-09-17T08:25:58.158Z,76.45
2018-09-17T08:29:02.128Z,77.06
2018-09-17T08:32:06.078Z,76.66
2018-09-17T08:35:10.363Z,76.75
2018-09-17T08:38:14.434Z,76.34
2018-09-17T08:41:18.539Z,77.33
2018-09-17T08:44:22.474Z,76.66
2018-09-17T08:47:26.400Z,76.78
2018-09-17T08:50:30.341Z,76.80
2018-09-17T08:53:34.262Z,77.09
2018-09-17T08:56:43.641Z,76.98
2018-09-17T08:59:51.750Z,76.39
2018-09-17T09:03:01.178Z,77.61
2018-09-17T09:06:10.375Z,77.02
2018-09-17T09:09:14.288Z,76.92
2018-09-17T09:12:25.446Z,77.15
2018-09-17T09:15:35.889Z,76.83
2018-09-17T09:18:39.818Z,76.39
2018-09-17T09:21:43.814Z,76.25
2018-09-17T09:24:47.764Z,76.27
2018-09-17T09:27:51.765Z,76.59
2018-09-17T09:30:56.167Z,75.77
2018-09-17T09:34:00.314Z,76.20
2018-09-17T09:37:04.307Z,76.18
2018-09-17T09:40:08.296Z,76.07
2018-09-17T09:43:12.577Z,76.33
2018-09-17T09:46:16.663Z,75.46
2018-09-17T09:49:20.824Z,75.38
2018-09-17T09:52:24.881Z,76.09
2018-09-17T09:55:28.927Z,75.94
2018-09-17T09:58:33.002Z,75.70
2018-09-17T10:01:42.267Z,75.96
2018-09-17T10:04:46.562Z,74.76
2018-09-17T10:07:51.261Z,75.94
2018-09-17T10:11:00.571Z,74.57
2018-09-17T10:14:09.934Z,75.13
2018-09-17T10:17:19.191Z,75.07
2018-09-17T10:20:23.193Z,75.23
2018-09-17T10:23:27.199Z,74.90
2018-09-17T10:26:31.199Z,75.12
2018-09-17T10:29:35.170Z,74.18
2018-09-17T10:32:39.113Z,74.47
2018-09-17T10:35:43.298Z,74.88
2018-09-17T10:38:47.274Z,74.15
2018-09-17T10:41:51.305Z,73.64
2018-09-17T10:44:55.718Z,74.01
2018-09-17T10:47:59.734Z,74.05
2018-09-17T10:51:03.761Z,74.58
2018-09-17T10:54:07.751Z,74.73
2018-09-17T10:57:11.822Z,73.71
2018-09-17T11:00:15.892Z,74.48
2018-09-17T11:03:19.842Z,74.15
2018-09-17T11:06:23.793Z,73.53
2018-09-17T11:09:27.765Z,73.29
2018-09-17T11:12:31.766Z,74.24
2018-09-17T11:15:41.089Z,73.50
2018-09-17T11:18:45.083Z,73.57
2018-09-17T11:21:49.080Z,73.20
2018-09-17T11:24:53.251Z,73.16
2018-09-17T11:27:57.244Z,73.21
2018-09-17T11:31:01.290Z,72.90
2018-09-17T11:34:05.588Z,72.75
2018-09-17T11:37:09.854Z,72.17
2018-09-17T11:40:13.958Z,71.83
2018-09-17T11:43:17.968Z,72.53
2018-09-17T11:46:21.920Z,72.88
2018-09-17T11:49:25.899Z,73.15
2018-09-17T11:52:29.905Z,72.76
2018-09-17T11:55:34.159Z,71.94
2018-09-17T11:58:38.127Z,72.19
2018-09-17T12:01:47.535Z,71.59
2018-09-17T12:04:56.796Z,72.55
2018-09-17T12:08:00.959Z,71.72
2018-09-17T12:11:05.016Z,71.12
2018-09-17T12:14:09.495Z,70.84
2018-09-17T12:17:13.549Z,71.32
2018-09-17T12:20:17.511Z,71.25
2018-09-17T12:23:21.516Z,71.91
2018-09-17T12:26:25.460Z,70.27
2018-09-17T12:29:29.436Z,71.29
2018-09-17T12:32:33.440Z,71.12
2018-09-17T12:35:37.414Z,70.42
2018-09-17T12:38:41.376Z,69.60
2018-09-17T12:41:45.374Z,70.48
2018-09-17T12:44:49.769Z,70.06
2018-09-17T12:47:54.535Z,70.47
2018-09-17T12:50:58.587Z,70.09
2018-09-17T12:54:03.104Z,70.39
2018-09-17T12:57:07.131Z,69.13
2018-09-17T13:00:11.599Z,69.51
2018-09-17T13:03:15.601Z,70.00
2018-09-17T13:06:20.220Z,68.72
2018-09-17T13:09:24.214Z,68.80
2018-09-17T13:12:28.282Z,68.91
2018-09-17T13:15:32.263Z,68.51
2018-09-17T13:18:36.269Z,68.76
2018-09-17T13:21:40.219Z,69.29
2018-09-17T13:24:44.185Z,69.37
2018-09-17T13:27:48.403Z,68.20
2018-09-17T13:30:52.428Z,68.62
2018-09-17T13:33:56.403Z,67.89
2018-09-17T13:37:00.531Z,68.05
2018-09-17T13:40:04.658Z,67.98
2018-09-17T13:43:08.657Z,66.78
2018-09-17T13:46:12.648Z,66.53
2018-09-17T13:49:16.632Z,65.98
2018-09-17T13:52:20.828Z,65.70
2018-09-17T13:55:26.033Z,66.35
2018-09-17T13:58:30.032Z,66.33
2018-09-17T14:01:34.110Z,66.06
2018-09-17T14:04:38.277Z,65.16
2018-09-17T14:07:42.285Z,65.61
2018-09-17T14:10:46.514Z,65.98
2018-09-17T14:13:50.665Z,65.41
2018-09-17T14:16:54.666Z,65.41
2018-09-17T14:19:58.685Z,64.59
2018-09-17T14:23:02.826Z,63.93
2018-09-17T14:26:07.068Z,63.84
2018-09-17T14:29:11.225Z,63.62
2018-09-17T14:32:20.753Z,64.09
2018-09-17T14:35:25.011Z,65.22
2018-09-17T14:38:29.932Z,63.90
2018-09-17T14:41:39.597Z,63.56
2018-09-17T14:44:43.792Z,63.61
2018-09-17T14:47:47.777Z,63.94
2018-09-17T14:50:51.757Z,64.58
2018-09-17T14:53:56.133Z,64.03
2018-09-17T14:57:00.295Z,63.98
2018-09-17T15:00:04.727Z,62.98
2018-09-17T15:03:08.761Z,63.43
2018-09-17T15:06:12.763Z,64.09
2018-09-17T15:09:17.023Z,64.48
2018-09-17T15:12:21.175Z,63.34
2018-09-17T15:15:25.456Z,63.53
2018-09-17T15:18:29.616Z,63.38
2018-09-17T15:21:33.597Z,62.93
2018-09-17T15:24:37.920Z,62.75
2018-09-17T15:27:41.879Z,63.42
2018-09-17T15:30:46.240Z,63.30
2018-09-17T15:33:50.514Z,61.60
2018-09-17T15:36:54.771Z,62.64
2018-09-17T15:39:59.347Z,62.40
2018-09-17T15:43:03.674Z,62.19
2018-09-17T15:46:07.932Z,61.44
2018-09-17T15:49:12.055Z,62.53
2018-09-17T15:52:16.141Z,61.73
2018-09-17T15:55:20.449Z,62.83
2018-09-17T15:58:24.449Z,61.83
2018-09-17T16:01:29.272Z,62.32
2018-09-17T16:04:33.290Z,62.38
2018-09-17T16:07:37.587Z,62.76
2018-09-17T16:10:41.947Z,62.17
2018-09-17T16:13:45.867Z,63.41
2018-09-17T16:16:49.868Z,62.89
2018-09-17T16:19:53.933Z,63.51
2018-09-17T16:22:58.124Z,63.91
2018-09-17T16:26:02.098Z,63.12
2018-09-17T16:29:06.219Z,63.73
2018-09-17T16:32:10.152Z,63.90
2018-09-17T16:35:14.212Z,63.43
2018-09-17T16:38:18.583Z,64.14
2018-09-17T16:41:22.567Z,64.25
2018-09-17T16:44:26.589Z,63.94
2018-09-17T16:47:31.601Z,64.25
2018-09-17T16:50:35.602Z,63.45
2018-09-17T16:53:39.902Z,63.54
2018-09-17T16:56:44.007Z,63.52
2018-09-17T16:59:48.230Z,63.65
2018-09-17T17:02:52.630Z,64.56
2018-09-17T17:05:57.872Z,64.01
2018-09-17T17:09:01.979Z,64.72
2018-09-17T17:12:06.105Z,64.22
2018-09-17T17:15:12.623Z,64.02
2018-09-17T17:18:17.855Z,64.13
2018-09-17T17:21:21.895Z,64.92
2018-09-17T17:24:26.260Z,65.04
2018-09-17T17:27:30.579Z,65.09
2018-09-17T17:30:34.845Z,64.90
2018-09-17T17:37:28.705Z,65.21
2018-09-17T17:40:33.176Z,65.74
2018-09-17T17:43:37.548Z,64.84
2018-09-17T17:46:41.695Z,64.67
2018-09-17T17:49:45.688Z,64.77
2018-09-17T17:52:49.813Z,65.33
2018-09-17T17:55:54.747Z,65.63
2018-09-17T17:58:58.942Z,65.92
2018-09-17T18:02:03.501Z,65.02
2018-09-17T18:05:08.160Z,65.95
2018-09-17T18:08:12.188Z,65.90
2018-09-17T18:11:16.311Z,66.06
2018-09-17T18:14:22.648Z,65.73
2018-09-17T18:17:26.658Z,65.69
2018-09-17T18:20:30.793Z,66.43
2018-09-17T18:23:35.243Z,65.73
2018-09-17T18:26:39.450Z,66.41
2018-09-17T18:29:43.786Z,66.74
2018-09-17T18:32:48.061Z,66.48
2018-09-17T18:35:52.596Z,66.09
2018-09-17T18:38:56.861Z,67.06
2018-09-17T18:42:01.066Z,66.98
2018-09-17T18:45:05.119Z,67.29
2018-09-17T18:48:09.616Z,67.22
2018-09-17T18:51:13.969Z,66.64
2018-09-17T18:54:18.711Z,66.25
2018-09-17T18:57:23.286Z,67.22
2018-09-17T19:00:27.591Z,67.61
2018-09-17T19:03:32.000Z,67.38
2018-09-17T19:06:35.965Z,67.22
2018-09-17T19:09:45.463Z,67.42
2018-09-17T19:12:49.642Z,66.71
2018-09-17T19:15:55.776Z,66.66
2018-09-17T19:18:59.934Z,66.96
2018-09-17T19:22:09.405Z,67.35
2018-09-17T19:25:15.316Z,66.98
2018-09-17T19:28:24.802Z,67.30
2018-09-17T19:31:29.117Z,68.35
2018-09-17T19:34:34.918Z,66.96
2018-09-17T19:37:44.675Z,68.16
2018-09-17T19:40:49.288Z,67.46
2018-09-17T19:43:53.733Z,67.35
2018-09-17T19:46:58.446Z,67.31
2018-09-17T19:50:06.766Z,67.47
2018-09-17T19:53:10.934Z,67.92
2018-09-17T19:56:16.263Z,68.09
2018-09-17T19:59:26.259Z,68.16
2018-09-17T20:02:30.324Z,68.52
2018-09-17T20:05:39.945Z,68.20
2018-09-17T20:08:45.343Z,68.60
2018-09-17T20:11:55.675Z,68.88
2018-09-17T20:15:00.345Z,68.46
2018-09-17T20:18:04.705Z,68.18
2018-09-17T20:21:09.132Z,68.73
2018-09-17T20:24:13.636Z,68.40
2018-09-17T20:27:20.485Z,68.46
2018-09-17T20:30:24.915Z,68.25
2018-09-17T20:33:32.081Z,70.73
2018-09-17T20:36:36.086Z,71.33
2018-09-17T20:39:40.416Z,71.82
2018-09-17T20:42:44.606Z,72.97
2018-09-17T20:45:49.213Z,72.90
2018-09-17T20:48:54.287Z,73.56
2018-09-17T20:51:58.525Z,74.18
2018-09-17T20:55:02.868Z,75.26
2018-09-17T20:58:08.576Z,74.41
2018-09-17T21:01:12.746Z,75.33
2018-09-17T21:04:16.918Z,76.23
2018-09-17T21:07:21.388Z,76.23
2018-09-17T21:10:25.487Z,75.92
2018-09-17T21:13:29.685Z,76.31
2018-09-17T21:16:33.904Z,77.02
2018-09-17T21:19:38.608Z,77.17
2018-09-17T21:22:42.573Z,76.56
2018-09-17T21:25:46.679Z,77.65
2018-09-17T21:28:51.054Z,77.23
2018-09-17T21:31:55.207Z,77.74
2018-09-17T21:34:59.304Z,77.32
2018-09-17T21:38:03.545Z,77.02
2018-09-17T21:41:07.534Z,77.40
2018-09-17T21:44:12.174Z,77.91
2018-09-17T21:47:16.163Z,77.77
2018-09-17T21:50:20.282Z,78.54
2018-09-17T21:53:24.295Z,78.13
2018-09-17T21:56:29.044Z,78.62
2018-09-17T21:59:33.115Z,77.84
2018-09-17T22:02:37.207Z,77.62
2018-09-17T22:05:41.543Z,77.65
2018-09-17T22:08:45.551Z,77.62
2018-09-17T22:11:49.585Z,77.83
2018-09-17T22:14:53.609Z,77.85
2018-09-17T22:17:57.623Z,78.19
2018-09-17T22:21:02.114Z,78.18
2018-09-17T22:24:06.575Z,77.89
2018-09-17T22:27:12.673Z,77.93
2018-09-17T22:30:16.654Z,77.68
2018-09-17T22:33:20.848Z,78.12
2018-09-17T22:36:25.065Z,77.53
2018-09-17T22:39:29.466Z,77.65
2018-09-17T22:42:33.830Z,77.78
2018-09-17T22:45:37.876Z,77.44
2018-09-17T22:48:42.055Z,77.97
2018-09-17T22:51:46.067Z,78.39
2018-09-17T22:54:50.334Z,77.86
2018-09-17T22:57:54.714Z,77.94
2018-09-17T23:00:59.047Z,77.77
2018-09-17T23:04:03.365Z,78.63
2018-09-17T23:07:07.398Z,78.39
2018-09-17T23:10:11.911Z,78.22
2018-09-17T23:13:15.912Z,78.71
2018-09-17T23:16:20.195Z,78.62
2018-09-17T23:19:24.958Z,78.51
2018-09-17T23:22:29.125Z,78.79
2018-09-17T23:25:33.127Z,79.77
2018-09-17T23:28:38.236Z,78.92
2018-09-17T23:31:42.589Z,79.09
2018-09-17T23:34:46.728Z,79.47
2018-09-17T23:37:50.752Z,78.81
2018-09-17T23:40:55.155Z,78.88
2018-09-17T23:43:59.324Z,78.70
2018-09-17T23:47:03.895Z,78.53
2018-09-17T23:50:08.482Z,79.27
2018-09-17T23:53:12.619Z,78.19
2018-09-17T23:56:16.561Z,78.78
2018-09-17T23:59:20.543Z,79.56
